sensor_id;sensor_type;location;lat;lon;timestamp;P1;durP1;ratioP1;P2;durP2;ratioP2
51957;SDS011;41120;51.820;20.804;2024-02-23T00:03:42;8.73;;;6.40;;
51957;SDS011;41120;51.820;20.804;2024-02-23T00:06:23;10.03;;;6.87;;
51957;SDS011;41120;51.820;20.804;2024-02-23T00:08:55;9.80;;;6.80;;
51957;SDS011;41120;51.820;20.804;2024-02-23T00:11:34;9.10;;;6.47;;
51957;SDS011;41120;51.820;20.804;2024-02-23T00:14:12;9.80;;;6.57;;
51957;SDS011;41120;51.820;20.804;2024-02-23T00:30:41;11.73;;;7.23;;
51957;SDS011;41120;51.820;20.804;2024-02-23T00:33:13;8.70;;;6.67;;
51957;SDS011;41120;51.820;20.804;2024-02-23T00:35:47;10.03;;;6.73;;
51957;SDS011;41120;51.820;20.804;2024-02-23T00:38:13;9.10;;;6.40;;
51957;SDS011;41120;51.820;20.804;2024-02-23T00:43:15;6.57;;;5.43;;
51957;SDS011;41120;51.820;20.804;2024-02-23T00:45:49;7.73;;;6.00;;
51957;SDS011;41120;51.820;20.804;2024-02-23T00:48:30;9.43;;;5.80;;
51957;SDS011;41120;51.820;20.804;2024-02-23T00:50:55;9.70;;;6.10;;
51957;SDS011;41120;51.820;20.804;2024-02-23T00:56:18;7.03;;;5.37;;
51957;SDS011;41120;51.820;20.804;2024-02-23T00:58:45;7.13;;;5.60;;
51957;SDS011;41120;51.820;20.804;2024-02-23T01:01:13;10.97;;;6.07;;
51957;SDS011;41120;51.820;20.804;2024-02-23T01:06:16;10.37;;;6.47;;
51957;SDS011;41120;51.820;20.804;2024-02-23T01:08:43;8.87;;;6.40;;
51957;SDS011;41120;51.820;20.804;2024-02-23T01:11:13;10.17;;;6.40;;
51957;SDS011;41120;51.820;20.804;2024-02-23T01:13:42;9.73;;;6.83;;
51957;SDS011;41120;51.820;20.804;2024-02-23T01:16:09;8.57;;;6.13;;
51957;SDS011;41120;51.820;20.804;2024-02-23T01:18:37;8.10;;;5.90;;
51957;SDS011;41120;51.820;20.804;2024-02-23T01:21:03;8.73;;;6.23;;
51957;SDS011;41120;51.820;20.804;2024-02-23T01:31:04;7.27;;;5.70;;
51957;SDS011;41120;51.820;20.804;2024-02-23T01:36:32;9.60;;;5.97;;
51957;SDS011;41120;51.820;20.804;2024-02-23T01:44:13;6.90;;;5.60;;
51957;SDS011;41120;51.820;20.804;2024-02-23T01:46:54;7.77;;;5.73;;
51957;SDS011;41120;51.820;20.804;2024-02-23T01:49:22;8.20;;;6.17;;
51957;SDS011;41120;51.820;20.804;2024-02-23T01:55:11;6.33;;;5.20;;
51957;SDS011;41120;51.820;20.804;2024-02-23T01:57:37;7.80;;;5.20;;
51957;SDS011;41120;51.820;20.804;2024-02-23T02:00:03;7.33;;;5.17;;
51957;SDS011;41120;51.820;20.804;2024-02-23T02:05:22;5.87;;;4.63;;
51957;SDS011;41120;51.820;20.804;2024-02-23T02:13:15;7.00;;;5.00;;
51957;SDS011;41120;51.820;20.804;2024-02-23T02:15:48;6.20;;;4.93;;
51957;SDS011;41120;51.820;20.804;2024-02-23T02:18:15;7.60;;;4.83;;
51957;SDS011;41120;51.820;20.804;2024-02-23T02:20:51;7.53;;;5.00;;
51957;SDS011;41120;51.820;20.804;2024-02-23T02:23:22;7.97;;;5.73;;
51957;SDS011;41120;51.820;20.804;2024-02-23T02:25:58;6.87;;;4.80;;
51957;SDS011;41120;51.820;20.804;2024-02-23T02:31:24;7.70;;;5.07;;
51957;SDS011;41120;51.820;20.804;2024-02-23T02:33:52;7.50;;;4.87;;
51957;SDS011;41120;51.820;20.804;2024-02-23T02:36:22;6.80;;;5.27;;
51957;SDS011;41120;51.820;20.804;2024-02-23T02:43:50;6.87;;;4.57;;
51957;SDS011;41120;51.820;20.804;2024-02-23T02:49:09;5.93;;;4.33;;
51957;SDS011;41120;51.820;20.804;2024-02-23T02:51:37;5.77;;;4.27;;
51957;SDS011;41120;51.820;20.804;2024-02-23T02:54:10;6.83;;;4.87;;
51957;SDS011;41120;51.820;20.804;2024-02-23T02:56:42;6.50;;;5.03;;
51957;SDS011;41120;51.820;20.804;2024-02-23T02:59:12;5.40;;;4.13;;
51957;SDS011;41120;51.820;20.804;2024-02-23T03:01:39;6.33;;;4.40;;
51957;SDS011;41120;51.820;20.804;2024-02-23T03:04:14;6.13;;;4.20;;
51957;SDS011;41120;51.820;20.804;2024-02-23T03:06:49;5.77;;;4.50;;
51957;SDS011;41120;51.820;20.804;2024-02-23T03:09:21;5.87;;;4.40;;
51957;SDS011;41120;51.820;20.804;2024-02-23T03:11:58;7.15;;;4.93;;
51957;SDS011;41120;51.820;20.804;2024-02-23T03:14:25;7.90;;;4.07;;
51957;SDS011;41120;51.820;20.804;2024-02-23T03:16:58;5.63;;;3.87;;
51957;SDS011;41120;51.820;20.804;2024-02-23T03:19:26;7.30;;;4.10;;
51957;SDS011;41120;51.820;20.804;2024-02-23T03:21:54;5.77;;;4.07;;
51957;SDS011;41120;51.820;20.804;2024-02-23T03:24:26;6.53;;;3.93;;
51957;SDS011;41120;51.820;20.804;2024-02-23T03:26:52;5.55;;;3.78;;
51957;SDS011;41120;51.820;20.804;2024-02-23T03:29:24;5.47;;;4.27;;
51957;SDS011;41120;51.820;20.804;2024-02-23T03:31:56;6.97;;;3.40;;
51957;SDS011;41120;51.820;20.804;2024-02-23T03:34:23;5.13;;;3.67;;
51957;SDS011;41120;51.820;20.804;2024-02-23T03:36:55;4.87;;;3.50;;
51957;SDS011;41120;51.820;20.804;2024-02-23T03:39:21;7.70;;;3.17;;
51957;SDS011;41120;51.820;20.804;2024-02-23T03:41:48;3.80;;;3.00;;
51957;SDS011;41120;51.820;20.804;2024-02-23T03:46:49;6.37;;;3.30;;
51957;SDS011;41120;51.820;20.804;2024-02-23T03:54:58;5.93;;;3.20;;
51957;SDS011;41120;51.820;20.804;2024-02-23T03:57:30;3.77;;;3.37;;
51957;SDS011;41120;51.820;20.804;2024-02-23T03:59:57;4.33;;;3.10;;
51957;SDS011;41120;51.820;20.804;2024-02-23T04:02:24;4.97;;;3.33;;
51957;SDS011;41120;51.820;20.804;2024-02-23T04:04:49;3.90;;;3.07;;
51957;SDS011;41120;51.820;20.804;2024-02-23T04:07:16;3.97;;;2.93;;
51957;SDS011;41120;51.820;20.804;2024-02-23T04:09:45;5.37;;;3.33;;
51957;SDS011;41120;51.820;20.804;2024-02-23T04:12:20;5.10;;;3.03;;
51957;SDS011;41120;51.820;20.804;2024-02-23T04:14:51;4.20;;;3.10;;
51957;SDS011;41120;51.820;20.804;2024-02-23T04:17:22;4.63;;;3.23;;
51957;SDS011;41120;51.820;20.804;2024-02-23T04:30:16;5.60;;;3.25;;
51957;SDS011;41120;51.820;20.804;2024-02-23T04:32:53;4.83;;;3.40;;
51957;SDS011;41120;51.820;20.804;2024-02-23T04:38:33;4.80;;;3.20;;
51957;SDS011;41120;51.820;20.804;2024-02-23T04:41:31;3.57;;;2.83;;
51957;SDS011;41120;51.820;20.804;2024-02-23T04:44:26;4.47;;;3.20;;
51957;SDS011;41120;51.820;20.804;2024-02-23T04:46:58;4.77;;;3.27;;
51957;SDS011;41120;51.820;20.804;2024-02-23T04:49:33;3.97;;;3.20;;
51957;SDS011;41120;51.820;20.804;2024-02-23T04:52:13;4.13;;;3.20;;
51957;SDS011;41120;51.820;20.804;2024-02-23T05:11:38;4.40;;;3.50;;
51957;SDS011;41120;51.820;20.804;2024-02-23T05:17:35;4.50;;;3.37;;
51957;SDS011;41120;51.820;20.804;2024-02-23T05:31:47;5.87;;;3.80;;
51957;SDS011;41120;51.820;20.804;2024-02-23T05:56:11;4.30;;;3.05;;
51957;SDS011;41120;51.820;20.804;2024-02-23T05:59:15;4.83;;;3.70;;
51957;SDS011;41120;51.820;20.804;2024-02-23T06:01:45;4.88;;;3.22;;
51957;SDS011;41120;51.820;20.804;2024-02-23T06:10:30;4.40;;;3.47;;
51957;SDS011;41120;51.820;20.804;2024-02-23T06:13:11;5.20;;;4.17;;
51957;SDS011;41120;51.820;20.804;2024-02-23T06:15:59;5.70;;;3.97;;
51957;SDS011;41120;51.820;20.804;2024-02-23T06:18:40;5.70;;;4.17;;
51957;SDS011;41120;51.820;20.804;2024-02-23T06:27:05;5.90;;;4.07;;
51957;SDS011;41120;51.820;20.804;2024-02-23T06:33:05;6.27;;;3.93;;
51957;SDS011;41120;51.820;20.804;2024-02-23T06:35:44;5.10;;;3.80;;
51957;SDS011;41120;51.820;20.804;2024-02-23T06:38:12;6.10;;;4.00;;
51957;SDS011;41120;51.820;20.804;2024-02-23T06:43:09;6.53;;;4.30;;
51957;SDS011;41120;51.820;20.804;2024-02-23T06:45:54;7.10;;;4.43;;
51957;SDS011;41120;51.820;20.804;2024-02-23T06:51:59;5.70;;;3.93;;
51957;SDS011;41120;51.820;20.804;2024-02-23T06:54:45;6.97;;;4.60;;
51957;SDS011;41120;51.820;20.804;2024-02-23T06:57:14;5.82;;;3.83;;
51957;SDS011;41120;51.820;20.804;2024-02-23T06:59:47;6.47;;;3.90;;
51957;SDS011;41120;51.820;20.804;2024-02-23T07:05:25;6.80;;;4.57;;
51957;SDS011;41120;51.820;20.804;2024-02-23T07:08:13;6.87;;;3.80;;
51957;SDS011;41120;51.820;20.804;2024-02-23T07:10:53;7.10;;;4.70;;
51957;SDS011;41120;51.820;20.804;2024-02-23T07:16:24;6.17;;;4.37;;
51957;SDS011;41120;51.820;20.804;2024-02-23T07:21:49;7.63;;;5.10;;
51957;SDS011;41120;51.820;20.804;2024-02-23T07:30:04;8.10;;;5.10;;
51957;SDS011;41120;51.820;20.804;2024-02-23T07:32:30;7.17;;;4.90;;
51957;SDS011;41120;51.820;20.804;2024-02-23T07:34:57;8.60;;;5.23;;
51957;SDS011;41120;51.820;20.804;2024-02-23T07:49:43;8.30;;;5.27;;
51957;SDS011;41120;51.820;20.804;2024-02-23T07:52:10;8.60;;;5.77;;
51957;SDS011;41120;51.820;20.804;2024-02-23T07:54:36;7.80;;;5.43;;
51957;SDS011;41120;51.820;20.804;2024-02-23T07:59:52;6.00;;;4.17;;
51957;SDS011;41120;51.820;20.804;2024-02-23T08:02:22;7.63;;;5.40;;
51957;SDS011;41120;51.820;20.804;2024-02-23T08:11:15;6.00;;;4.63;;
51957;SDS011;41120;51.820;20.804;2024-02-23T08:13:49;8.77;;;5.07;;
51957;SDS011;41120;51.820;20.804;2024-02-23T08:22:31;7.82;;;4.72;;
51957;SDS011;41120;51.820;20.804;2024-02-23T08:25:03;7.47;;;5.77;;
51957;SDS011;41120;51.820;20.804;2024-02-23T08:27:30;7.07;;;5.10;;
51957;SDS011;41120;51.820;20.804;2024-02-23T08:29:56;8.33;;;5.40;;
51957;SDS011;41120;51.820;20.804;2024-02-23T08:32:22;8.87;;;4.93;;
51957;SDS011;41120;51.820;20.804;2024-02-23T08:34:49;6.60;;;5.00;;
51957;SDS011;41120;51.820;20.804;2024-02-23T08:37:15;6.13;;;4.60;;
51957;SDS011;41120;51.820;20.804;2024-02-23T08:39:42;7.30;;;4.87;;
51957;SDS011;41120;51.820;20.804;2024-02-23T08:42:07;7.00;;;4.83;;
51957;SDS011;41120;51.820;20.804;2024-02-23T08:44:37;7.77;;;4.73;;
51957;SDS011;41120;51.820;20.804;2024-02-23T08:47:04;7.50;;;4.53;;
51957;SDS011;41120;51.820;20.804;2024-02-23T08:49:30;8.27;;;5.47;;
51957;SDS011;41120;51.820;20.804;2024-02-23T08:54:37;6.90;;;5.33;;
51957;SDS011;41120;51.820;20.804;2024-02-23T08:57:12;7.60;;;5.40;;
51957;SDS011;41120;51.820;20.804;2024-02-23T09:00:00;6.43;;;4.30;;
51957;SDS011;41120;51.820;20.804;2024-02-23T09:02:34;14.77;;;7.50;;
51957;SDS011;41120;51.820;20.804;2024-02-23T09:05:10;7.00;;;4.90;;
51957;SDS011;41120;51.820;20.804;2024-02-23T09:07:37;125.70;;;70.95;;
51957;SDS011;41120;51.820;20.804;2024-02-23T09:10:04;14.07;;;8.23;;
51957;SDS011;41120;51.820;20.804;2024-02-23T09:15:29;10.37;;;7.70;;
51957;SDS011;41120;51.820;20.804;2024-02-23T09:18:05;8.67;;;7.23;;
51957;SDS011;41120;51.820;20.804;2024-02-23T09:23:03;8.50;;;6.87;;
51957;SDS011;41120;51.820;20.804;2024-02-23T09:25:31;9.30;;;5.10;;
51957;SDS011;41120;51.820;20.804;2024-02-23T09:28:04;12.63;;;8.63;;
51957;SDS011;41120;51.820;20.804;2024-02-23T09:30:38;6.17;;;4.83;;
51957;SDS011;41120;51.820;20.804;2024-02-23T09:33:06;5.87;;;4.80;;
51957;SDS011;41120;51.820;20.804;2024-02-23T09:35:35;11.33;;;9.13;;
51957;SDS011;41120;51.820;20.804;2024-02-23T09:38:07;7.07;;;4.33;;
51957;SDS011;41120;51.820;20.804;2024-02-23T09:43:05;8.33;;;5.57;;
51957;SDS011;41120;51.820;20.804;2024-02-23T09:45:47;8.37;;;6.93;;
51957;SDS011;41120;51.820;20.804;2024-02-23T09:48:21;9.15;;;5.82;;
51957;SDS011;41120;51.820;20.804;2024-02-23T09:50:49;8.43;;;5.73;;
51957;SDS011;41120;51.820;20.804;2024-02-23T09:53:17;11.57;;;8.93;;
51957;SDS011;41120;51.820;20.804;2024-02-23T09:55:51;13.07;;;9.37;;
51957;SDS011;41120;51.820;20.804;2024-02-23T10:01:06;20.63;;;17.50;;
51957;SDS011;41120;51.820;20.804;2024-02-23T10:03:38;9.27;;;6.60;;
51957;SDS011;41120;51.820;20.804;2024-02-23T10:06:37;6.77;;;5.13;;
51957;SDS011;41120;51.820;20.804;2024-02-23T10:14:36;9.90;;;7.00;;
51957;SDS011;41120;51.820;20.804;2024-02-23T10:17:02;8.37;;;5.63;;
51957;SDS011;41120;51.820;20.804;2024-02-23T10:25:22;8.93;;;5.27;;
51957;SDS011;41120;51.820;20.804;2024-02-23T10:27:58;6.80;;;5.30;;
51957;SDS011;41120;51.820;20.804;2024-02-23T10:33:28;6.73;;;5.53;;
51957;SDS011;41120;51.820;20.804;2024-02-23T10:36:01;7.00;;;5.50;;
51957;SDS011;41120;51.820;20.804;2024-02-23T10:41:09;8.93;;;5.17;;
51957;SDS011;41120;51.820;20.804;2024-02-23T10:43:41;8.00;;;5.60;;
51957;SDS011;41120;51.820;20.804;2024-02-23T10:46:21;8.10;;;5.68;;
51957;SDS011;41120;51.820;20.804;2024-02-23T10:49:01;7.50;;;5.67;;
51957;SDS011;41120;51.820;20.804;2024-02-23T10:54:26;12.10;;;7.27;;
51957;SDS011;41120;51.820;20.804;2024-02-23T11:03:08;9.43;;;6.53;;
51957;SDS011;41120;51.820;20.804;2024-02-23T11:05:34;9.57;;;6.37;;
51957;SDS011;41120;51.820;20.804;2024-02-23T11:08:08;8.83;;;6.20;;
51957;SDS011;41120;51.820;20.804;2024-02-23T11:16:28;10.68;;;6.85;;
51957;SDS011;41120;51.820;20.804;2024-02-23T11:21:39;13.97;;;7.50;;
51957;SDS011;41120;51.820;20.804;2024-02-23T11:24:09;13.57;;;8.10;;
51957;SDS011;41120;51.820;20.804;2024-02-23T11:26:58;13.03;;;7.10;;
51957;SDS011;41120;51.820;20.804;2024-02-23T11:31:54;10.83;;;7.10;;
51957;SDS011;41120;51.820;20.804;2024-02-23T11:34:29;9.48;;;7.03;;
51957;SDS011;41120;51.820;20.804;2024-02-23T11:39:29;9.57;;;6.60;;
51957;SDS011;41120;51.820;20.804;2024-02-23T11:42:04;13.60;;;8.60;;
51957;SDS011;41120;51.820;20.804;2024-02-23T11:44:41;11.00;;;7.63;;
51957;SDS011;41120;51.820;20.804;2024-02-23T11:53:09;10.37;;;7.17;;
51957;SDS011;41120;51.820;20.804;2024-02-23T11:55:45;12.83;;;8.77;;
51957;SDS011;41120;51.820;20.804;2024-02-23T12:01:09;11.00;;;8.07;;
51957;SDS011;41120;51.820;20.804;2024-02-23T12:03:44;11.60;;;7.77;;
51957;SDS011;41120;51.820;20.804;2024-02-23T12:22:01;19.47;;;11.20;;
51957;SDS011;41120;51.820;20.804;2024-02-23T12:30:32;10.80;;;7.83;;
51957;SDS011;41120;51.820;20.804;2024-02-23T12:33:08;10.27;;;5.67;;
51957;SDS011;41120;51.820;20.804;2024-02-23T12:36:15;8.97;;;7.50;;
51957;SDS011;41120;51.820;20.804;2024-02-23T12:42:54;9.40;;;5.07;;
51957;SDS011;41120;51.820;20.804;2024-02-23T12:45:42;11.00;;;6.83;;
51957;SDS011;41120;51.820;20.804;2024-02-23T12:49:03;8.50;;;5.83;;
51957;SDS011;41120;51.820;20.804;2024-02-23T12:51:47;9.77;;;6.37;;
51957;SDS011;41120;51.820;20.804;2024-02-23T12:54:30;10.23;;;8.00;;
51957;SDS011;41120;51.820;20.804;2024-02-23T12:59:37;15.73;;;10.13;;
51957;SDS011;41120;51.820;20.804;2024-02-23T13:02:12;8.77;;;6.37;;
51957;SDS011;41120;51.820;20.804;2024-02-23T13:04:38;9.07;;;7.40;;
51957;SDS011;41120;51.820;20.804;2024-02-23T13:07:17;8.80;;;7.03;;
51957;SDS011;41120;51.820;20.804;2024-02-23T13:09:45;10.67;;;7.80;;
51957;SDS011;41120;51.820;20.804;2024-02-23T13:12:16;10.70;;;7.53;;
51957;SDS011;41120;51.820;20.804;2024-02-23T13:14:43;13.87;;;10.17;;
51957;SDS011;41120;51.820;20.804;2024-02-23T13:17:16;22.40;;;19.27;;
51957;SDS011;41120;51.820;20.804;2024-02-23T13:20:04;14.17;;;11.07;;
51957;SDS011;41120;51.820;20.804;2024-02-23T13:22:35;25.10;;;22.43;;
51957;SDS011;41120;51.820;20.804;2024-02-23T13:25:01;12.47;;;8.10;;
51957;SDS011;41120;51.820;20.804;2024-02-23T13:27:37;11.37;;;8.13;;
51957;SDS011;41120;51.820;20.804;2024-02-23T13:30:03;12.93;;;7.97;;
51957;SDS011;41120;51.820;20.804;2024-02-23T13:32:29;8.27;;;6.87;;
51957;SDS011;41120;51.820;20.804;2024-02-23T13:34:56;8.90;;;6.93;;
51957;SDS011;41120;51.820;20.804;2024-02-23T13:37:26;8.73;;;6.33;;
51957;SDS011;41120;51.820;20.804;2024-02-23T13:39:52;9.20;;;7.10;;
51957;SDS011;41120;51.820;20.804;2024-02-23T13:42:22;11.53;;;8.17;;
51957;SDS011;41120;51.820;20.804;2024-02-23T13:45:15;10.23;;;8.30;;
51957;SDS011;41120;51.820;20.804;2024-02-23T13:47:40;13.00;;;8.67;;
51957;SDS011;41120;51.820;20.804;2024-02-23T13:50:27;14.33;;;9.83;;
51957;SDS011;41120;51.820;20.804;2024-02-23T13:52:55;13.93;;;10.40;;
51957;SDS011;41120;51.820;20.804;2024-02-23T13:55:22;13.80;;;9.13;;
51957;SDS011;41120;51.820;20.804;2024-02-23T13:57:54;11.47;;;8.97;;
51957;SDS011;41120;51.820;20.804;2024-02-23T14:00:23;12.25;;;7.57;;
51957;SDS011;41120;51.820;20.804;2024-02-23T14:02:50;10.13;;;7.60;;
51957;SDS011;41120;51.820;20.804;2024-02-23T14:05:16;11.80;;;7.60;;
51957;SDS011;41120;51.820;20.804;2024-02-23T14:10:41;12.30;;;8.93;;
51957;SDS011;41120;51.820;20.804;2024-02-23T14:13:12;9.70;;;7.50;;
51957;SDS011;41120;51.820;20.804;2024-02-23T14:15:39;11.37;;;7.23;;
51957;SDS011;41120;51.820;20.804;2024-02-23T14:18:08;15.33;;;10.77;;
51957;SDS011;41120;51.820;20.804;2024-02-23T14:20:36;13.03;;;9.50;;
51957;SDS011;41120;51.820;20.804;2024-02-23T14:23:14;13.93;;;8.80;;
51957;SDS011;41120;51.820;20.804;2024-02-23T14:25:52;11.97;;;8.77;;
51957;SDS011;41120;51.820;20.804;2024-02-23T14:28:21;18.77;;;13.67;;
51957;SDS011;41120;51.820;20.804;2024-02-23T14:31:02;19.87;;;13.57;;
51957;SDS011;41120;51.820;20.804;2024-02-23T14:33:51;19.50;;;13.33;;
51957;SDS011;41120;51.820;20.804;2024-02-23T14:36:22;14.83;;;11.17;;
51957;SDS011;41120;51.820;20.804;2024-02-23T14:38:53;18.80;;;13.60;;
51957;SDS011;41120;51.820;20.804;2024-02-23T14:41:20;18.23;;;12.73;;
51957;SDS011;41120;51.820;20.804;2024-02-23T14:43:46;27.97;;;18.27;;
51957;SDS011;41120;51.820;20.804;2024-02-23T14:46:21;12.43;;;9.30;;
51957;SDS011;41120;51.820;20.804;2024-02-23T14:48:48;13.97;;;9.10;;
51957;SDS011;41120;51.820;20.804;2024-02-23T14:51:14;14.17;;;9.23;;
51957;SDS011;41120;51.820;20.804;2024-02-23T14:53:42;13.00;;;8.93;;
51957;SDS011;41120;51.820;20.804;2024-02-23T14:56:08;11.37;;;9.20;;
51957;SDS011;41120;51.820;20.804;2024-02-23T14:58:36;12.60;;;9.80;;
51957;SDS011;41120;51.820;20.804;2024-02-23T15:01:02;13.73;;;9.77;;
51957;SDS011;41120;51.820;20.804;2024-02-23T15:03:28;13.20;;;9.37;;
51957;SDS011;41120;51.820;20.804;2024-02-23T15:05:55;15.47;;;9.73;;
51957;SDS011;41120;51.820;20.804;2024-02-23T15:08:26;13.75;;;9.93;;
51957;SDS011;41120;51.820;20.804;2024-02-23T15:10:52;20.57;;;16.53;;
51957;SDS011;41120;51.820;20.804;2024-02-23T15:22:15;17.63;;;13.10;;
51957;SDS011;41120;51.820;20.804;2024-02-23T15:27:49;17.75;;;12.13;;
51957;SDS011;41120;51.820;20.804;2024-02-23T15:30:20;24.95;;;16.00;;
51957;SDS011;41120;51.820;20.804;2024-02-23T15:32:46;31.13;;;19.63;;
51957;SDS011;41120;51.820;20.804;2024-02-23T15:35:13;31.17;;;19.67;;
51957;SDS011;41120;51.820;20.804;2024-02-23T15:37:44;24.77;;;14.07;;
51957;SDS011;41120;51.820;20.804;2024-02-23T15:40:19;18.00;;;12.60;;
51957;SDS011;41120;51.820;20.804;2024-02-23T15:42:57;17.80;;;12.57;;
51957;SDS011;41120;51.820;20.804;2024-02-23T15:45:26;18.87;;;13.63;;
51957;SDS011;41120;51.820;20.804;2024-02-23T15:47:53;20.47;;;13.33;;
51957;SDS011;41120;51.820;20.804;2024-02-23T15:50:19;19.57;;;13.90;;
51957;SDS011;41120;51.820;20.804;2024-02-23T15:52:46;19.17;;;14.30;;
51957;SDS011;41120;51.820;20.804;2024-02-23T15:55:13;20.77;;;14.93;;
51957;SDS011;41120;51.820;20.804;2024-02-23T15:57:40;24.40;;;17.10;;
51957;SDS011;41120;51.820;20.804;2024-02-23T16:00:06;23.97;;;18.20;;
51957;SDS011;41120;51.820;20.804;2024-02-23T16:02:36;25.67;;;16.93;;
51957;SDS011;41120;51.820;20.804;2024-02-23T16:05:02;27.60;;;18.40;;
51957;SDS011;41120;51.820;20.804;2024-02-23T16:07:29;26.20;;;18.00;;
51957;SDS011;41120;51.820;20.804;2024-02-23T16:09:55;27.43;;;18.40;;
51957;SDS011;41120;51.820;20.804;2024-02-23T16:12:21;29.63;;;20.73;;
51957;SDS011;41120;51.820;20.804;2024-02-23T16:14:47;26.33;;;17.40;;
51957;SDS011;41120;51.820;20.804;2024-02-23T16:17:13;28.27;;;18.87;;
51957;SDS011;41120;51.820;20.804;2024-02-23T16:19:41;31.40;;;20.80;;
51957;SDS011;41120;51.820;20.804;2024-02-23T16:22:08;31.83;;;21.40;;
51957;SDS011;41120;51.820;20.804;2024-02-23T16:24:34;31.83;;;20.87;;
51957;SDS011;41120;51.820;20.804;2024-02-23T16:30:04;33.90;;;20.73;;
51957;SDS011;41120;51.820;20.804;2024-02-23T16:32:30;26.57;;;18.83;;
51957;SDS011;41120;51.820;20.804;2024-02-23T16:34:56;26.43;;;17.83;;
51957;SDS011;41120;51.820;20.804;2024-02-23T16:37:39;28.13;;;18.97;;
51957;SDS011;41120;51.820;20.804;2024-02-23T16:40:21;31.73;;;21.20;;
51957;SDS011;41120;51.820;20.804;2024-02-23T16:43:07;67.33;;;45.80;;
51957;SDS011;41120;51.820;20.804;2024-02-23T16:45:35;50.13;;;34.50;;
51957;SDS011;41120;51.820;20.804;2024-02-23T16:48:01;59.67;;;39.73;;
51957;SDS011;41120;51.820;20.804;2024-02-23T16:50:32;71.17;;;48.60;;
51957;SDS011;41120;51.820;20.804;2024-02-23T16:52:58;58.57;;;38.43;;
51957;SDS011;41120;51.820;20.804;2024-02-23T16:55:24;58.97;;;38.30;;
51957;SDS011;41120;51.820;20.804;2024-02-23T16:58:00;57.30;;;34.37;;
51957;SDS011;41120;51.820;20.804;2024-02-23T17:03:15;38.53;;;26.87;;
51957;SDS011;41120;51.820;20.804;2024-02-23T17:05:48;38.70;;;26.17;;
51957;SDS011;41120;51.820;20.804;2024-02-23T17:08:15;38.23;;;23.87;;
51957;SDS011;41120;51.820;20.804;2024-02-23T17:10:42;38.73;;;24.73;;
51957;SDS011;41120;51.820;20.804;2024-02-23T17:15:43;44.10;;;26.67;;
51957;SDS011;41120;51.820;20.804;2024-02-23T17:21:14;41.57;;;25.53;;
51957;SDS011;41120;51.820;20.804;2024-02-23T17:23:49;42.03;;;26.40;;
51957;SDS011;41120;51.820;20.804;2024-02-23T17:26:15;39.57;;;24.30;;
51957;SDS011;41120;51.820;20.804;2024-02-23T17:28:41;38.67;;;24.80;;
51957;SDS011;41120;51.820;20.804;2024-02-23T17:31:08;38.00;;;25.00;;
51957;SDS011;41120;51.820;20.804;2024-02-23T17:33:35;44.77;;;27.63;;
51957;SDS011;41120;51.820;20.804;2024-02-23T17:36:01;42.67;;;25.97;;
51957;SDS011;41120;51.820;20.804;2024-02-23T17:38:28;41.80;;;27.10;;
51957;SDS011;41120;51.820;20.804;2024-02-23T17:40:57;44.10;;;27.60;;
51957;SDS011;41120;51.820;20.804;2024-02-23T17:43:23;42.97;;;27.87;;
51957;SDS011;41120;51.820;20.804;2024-02-23T17:45:49;48.90;;;29.33;;
51957;SDS011;41120;51.820;20.804;2024-02-23T17:48:15;43.90;;;28.83;;
51957;SDS011;41120;51.820;20.804;2024-02-23T17:50:42;40.30;;;26.60;;
51957;SDS011;41120;51.820;20.804;2024-02-23T17:53:07;43.53;;;27.53;;
51957;SDS011;41120;51.820;20.804;2024-02-23T17:55:34;44.13;;;26.47;;
51957;SDS011;41120;51.820;20.804;2024-02-23T17:58:02;40.47;;;25.00;;
51957;SDS011;41120;51.820;20.804;2024-02-23T18:00:36;43.03;;;24.93;;
51957;SDS011;41120;51.820;20.804;2024-02-23T18:03:06;40.23;;;25.60;;
51957;SDS011;41120;51.820;20.804;2024-02-23T18:05:37;45.60;;;24.77;;
51957;SDS011;41120;51.820;20.804;2024-02-23T18:08:07;37.63;;;24.13;;
51957;SDS011;41120;51.820;20.804;2024-02-23T18:10:34;36.50;;;24.53;;
51957;SDS011;41120;51.820;20.804;2024-02-23T18:13:01;43.70;;;27.53;;
51957;SDS011;41120;51.820;20.804;2024-02-23T18:15:34;44.00;;;27.30;;
51957;SDS011;41120;51.820;20.804;2024-02-23T18:18:15;49.83;;;29.67;;
51957;SDS011;41120;51.820;20.804;2024-02-23T18:23:37;47.03;;;28.87;;
51957;SDS011;41120;51.820;20.804;2024-02-23T18:26:14;53.50;;;29.60;;
51957;SDS011;41120;51.820;20.804;2024-02-23T18:28:43;49.67;;;29.80;;
51957;SDS011;41120;51.820;20.804;2024-02-23T18:31:33;50.92;;;29.73;;
51957;SDS011;41120;51.820;20.804;2024-02-23T18:34:22;53.00;;;30.73;;
51957;SDS011;41120;51.820;20.804;2024-02-23T18:36:48;54.37;;;31.43;;
51957;SDS011;41120;51.820;20.804;2024-02-23T18:39:16;51.77;;;32.57;;
51957;SDS011;41120;51.820;20.804;2024-02-23T18:41:48;52.97;;;32.00;;
51957;SDS011;41120;51.820;20.804;2024-02-23T18:44:42;51.73;;;31.53;;
51957;SDS011;41120;51.820;20.804;2024-02-23T18:47:15;58.47;;;32.87;;
51957;SDS011;41120;51.820;20.804;2024-02-23T18:49:44;57.70;;;34.15;;
51957;SDS011;41120;51.820;20.804;2024-02-23T18:52:10;54.67;;;35.03;;
51957;SDS011;41120;51.820;20.804;2024-02-23T18:54:43;66.33;;;38.50;;
51957;SDS011;41120;51.820;20.804;2024-02-23T18:57:21;68.63;;;37.67;;
51957;SDS011;41120;51.820;20.804;2024-02-23T18:59:50;64.47;;;38.15;;
51957;SDS011;41120;51.820;20.804;2024-02-23T19:02:17;69.77;;;40.17;;
51957;SDS011;41120;51.820;20.804;2024-02-23T19:04:45;70.83;;;42.47;;
51957;SDS011;41120;51.820;20.804;2024-02-23T19:07:13;70.90;;;41.97;;
51957;SDS011;41120;51.820;20.804;2024-02-23T19:09:41;67.77;;;40.27;;
51957;SDS011;41120;51.820;20.804;2024-02-23T19:12:23;66.27;;;38.40;;
51957;SDS011;41120;51.820;20.804;2024-02-23T19:17:22;64.70;;;38.27;;
51957;SDS011;41120;51.820;20.804;2024-02-23T19:25:18;77.33;;;42.97;;
51957;SDS011;41120;51.820;20.804;2024-02-23T19:27:59;87.67;;;45.00;;
51957;SDS011;41120;51.820;20.804;2024-02-23T19:34:10;93.03;;;48.80;;
51957;SDS011;41120;51.820;20.804;2024-02-23T19:39:45;76.57;;;41.50;;
51957;SDS011;41120;51.820;20.804;2024-02-23T19:42:16;68.13;;;40.03;;
51957;SDS011;41120;51.820;20.804;2024-02-23T19:44:47;67.17;;;39.23;;
51957;SDS011;41120;51.820;20.804;2024-02-23T19:47:18;80.28;;;42.70;;
51957;SDS011;41120;51.820;20.804;2024-02-23T19:49:49;74.37;;;39.47;;
51957;SDS011;41120;51.820;20.804;2024-02-23T19:52:17;65.10;;;37.70;;
51957;SDS011;41120;51.820;20.804;2024-02-23T19:57:30;70.33;;;38.73;;
51957;SDS011;41120;51.820;20.804;2024-02-23T19:59:57;72.83;;;40.47;;
51957;SDS011;41120;51.820;20.804;2024-02-23T20:05:29;86.83;;;44.23;;
51957;SDS011;41120;51.820;20.804;2024-02-23T20:08:08;88.57;;;46.53;;
51957;SDS011;41120;51.820;20.804;2024-02-23T20:21:50;83.00;;;42.05;;
51957;SDS011;41120;51.820;20.804;2024-02-23T20:24:21;78.33;;;42.03;;
51957;SDS011;41120;51.820;20.804;2024-02-23T20:26:54;76.33;;;42.20;;
51957;SDS011;41120;51.820;20.804;2024-02-23T20:29:36;75.23;;;41.17;;
51957;SDS011;41120;51.820;20.804;2024-02-23T20:42:18;74.75;;;41.05;;
51957;SDS011;41120;51.820;20.804;2024-02-23T20:51:11;81.93;;;44.80;;
51957;SDS011;41120;51.820;20.804;2024-02-23T20:53:39;80.97;;;45.10;;
